createdAt,value
2022-08-05T00:01:01.027Z,1000.63
2022-08-05T00:02:07.634Z,1000.62
2022-08-05T00:02:59.178Z,1000.65
2022-08-05T00:03:58.188Z,1000.63
2022-08-05T00:04:58.147Z,1000.58
2022-08-05T00:06:04.859Z,1000.52
2022-08-05T00:06:59.119Z,1000.54
2022-08-05T00:08:00.878Z,1000.46
2022-08-05T00:08:58.130Z,1000.44
2022-08-05T00:09:58.089Z,1000.51
2022-08-05T00:11:00.804Z,1000.47
2022-08-05T00:12:00.007Z,1000.49
2022-08-05T00:12:58.047Z,1000.47
2022-08-05T00:13:58.037Z,1000.45
2022-08-05T00:14:58.040Z,1000.44
2022-08-05T00:16:00.416Z,1000.59
2022-08-05T00:16:58.003Z,1000.60
2022-08-05T00:17:57.997Z,1000.62
2022-08-05T00:18:57.957Z,1000.71
2022-08-05T00:20:02.418Z,1000.67
2022-08-05T00:20:58.936Z,1000.75
2022-08-05T00:21:57.940Z,1000.80
2022-08-05T00:23:02.324Z,1000.77
2022-08-05T00:24:10.478Z,1000.73
2022-08-05T00:24:58.901Z,1000.72
2022-08-05T00:25:57.878Z,1000.76
2022-08-05T00:26:58.574Z,1000.72
2022-08-05T00:27:57.858Z,1000.69
2022-08-05T00:28:57.840Z,1000.66
2022-08-05T00:29:57.837Z,1000.66
2022-08-05T00:30:57.805Z,1000.64
2022-08-05T00:32:12.810Z,1000.70
2022-08-05T00:32:58.798Z,1000.70
2022-08-05T00:34:53.412Z,1000.68
2022-08-05T00:35:06.749Z,1000.72
2022-08-05T00:36:16.095Z,1000.75
2022-08-05T00:37:13.074Z,1000.74
2022-08-05T00:37:58.716Z,1000.72
2022-08-05T00:38:57.707Z,1000.71
2022-08-05T00:39:58.992Z,1000.75
2022-08-05T00:40:57.677Z,1000.70
2022-08-05T00:41:57.666Z,1000.64
2022-08-05T00:42:57.647Z,1000.66
2022-08-05T00:43:57.646Z,1000.62
2022-08-05T00:44:57.626Z,1000.57
2022-08-05T00:45:57.626Z,1000.59
2022-08-05T00:47:02.176Z,1000.63
2022-08-05T00:48:06.025Z,1000.63
2022-08-05T00:48:58.572Z,1000.62
2022-08-05T00:49:57.564Z,1000.67
2022-08-05T00:50:57.554Z,1000.67
2022-08-05T00:51:57.548Z,1000.64
2022-08-05T00:52:57.524Z,1000.66
2022-08-05T00:54:02.248Z,1000.62
2022-08-05T00:54:58.484Z,1000.56
2022-08-05T00:55:57.494Z,1000.66
2022-08-05T00:56:57.479Z,1000.64
2022-08-05T00:57:58.896Z,1000.68
2022-08-05T00:58:57.433Z,1000.65
2022-08-05T00:59:57.445Z,1000.68
2022-08-05T01:00:57.530Z,1000.72
2022-08-05T01:01:57.431Z,1000.74
2022-08-05T01:02:57.383Z,1000.73
2022-08-05T01:03:57.385Z,1000.79
2022-08-05T01:04:57.356Z,1000.83
2022-08-05T01:05:57.364Z,1000.75
2022-08-05T01:06:57.334Z,1000.79
2022-08-05T01:08:41.465Z,1000.76
2022-08-05T01:08:58.304Z,1000.64
2022-08-05T01:09:57.294Z,1000.64
2022-08-05T01:10:57.950Z,1000.57
2022-08-05T01:11:59.756Z,1000.60
2022-08-05T01:13:12.797Z,1000.58
2022-08-05T01:13:59.783Z,1000.58
2022-08-05T01:14:57.238Z,1000.57
2022-08-05T01:15:57.222Z,1000.61
2022-08-05T01:16:57.221Z,1000.63
2022-08-05T01:17:57.203Z,1000.62
2022-08-05T01:18:57.184Z,1000.61
2022-08-05T01:20:01.823Z,1000.60
2022-08-05T01:20:58.154Z,1000.63
2022-08-05T01:21:57.153Z,1000.63
2022-08-05T01:22:57.423Z,1000.65
2022-08-05T01:23:57.103Z,1000.60
2022-08-05T01:24:57.111Z,1000.67
2022-08-05T01:25:57.085Z,1000.72
2022-08-05T01:26:57.092Z,1000.78
2022-08-05T01:27:57.062Z,1000.86
2022-08-05T01:28:57.052Z,1000.92
2022-08-05T01:29:58.033Z,1000.82
2022-08-05T01:30:57.020Z,1000.74
2022-08-05T01:31:57.022Z,1000.81
2022-08-05T01:32:56.992Z,1000.79
2022-08-05T01:33:56.982Z,1000.88
2022-08-05T01:34:56.965Z,1000.86
2022-08-05T01:35:57.525Z,1000.85
2022-08-05T01:36:56.951Z,1000.83
2022-08-05T01:37:56.942Z,1000.82
2022-08-05T01:39:00.363Z,1000.86
2022-08-05T01:39:58.999Z,1000.90
2022-08-05T01:40:56.892Z,1000.85
2022-08-05T01:41:56.893Z,1000.85
2022-08-05T01:42:56.881Z,1000.88
2022-08-05T01:43:56.851Z,1000.97
2022-08-05T01:44:56.852Z,1000.91
2022-08-05T01:45:57.189Z,1000.98
2022-08-05T01:46:56.811Z,1000.94
2022-08-05T01:47:56.801Z,1000.95
2022-08-05T01:48:56.791Z,1001.00
2022-08-05T01:50:02.107Z,1000.94
2022-08-05T01:50:57.761Z,1000.92
2022-08-05T01:51:56.758Z,1000.84
2022-08-05T01:52:56.751Z,1000.86
2022-08-05T01:53:58.827Z,1000.85
2022-08-05T01:54:56.711Z,1000.89
2022-08-05T01:55:56.690Z,1000.88
2022-08-05T01:58:11.544Z,1000.86
2022-08-05T01:58:18.883Z,1000.89
2022-08-05T01:58:57.660Z,1000.89
2022-08-05T01:59:56.643Z,1000.88
2022-08-05T02:00:56.629Z,1000.87
2022-08-05T02:01:56.673Z,1000.90
2022-08-05T02:02:56.610Z,1000.92
2022-08-05T02:03:56.599Z,1000.94
2022-08-05T02:04:56.579Z,1001.03
2022-08-05T02:05:59.741Z,1001.10
2022-08-05T02:06:56.559Z,1001.02
2022-08-05T02:07:59.896Z,1001.00
2022-08-05T02:08:58.755Z,1001.13
2022-08-05T02:09:56.509Z,1001.06
2022-08-05T02:10:56.510Z,1001.11
2022-08-05T02:11:56.509Z,1001.09
2022-08-05T02:12:56.479Z,1001.09
2022-08-05T02:13:56.470Z,1001.13
2022-08-05T02:14:56.449Z,1001.19
2022-08-05T02:15:56.437Z,1001.18
2022-08-05T02:16:56.419Z,1001.26
2022-08-05T02:18:31.379Z,1001.28
2022-08-05T02:18:57.419Z,1001.34
2022-08-05T02:19:56.378Z,1001.39
2022-08-05T02:20:58.850Z,1001.45
2022-08-05T02:21:56.349Z,1001.46
2022-08-05T02:22:56.341Z,1001.52
2022-08-05T02:23:56.329Z,1001.57
2022-08-05T02:24:56.331Z,1001.62
2022-08-05T02:25:56.297Z,1001.62
2022-08-05T02:26:56.287Z,1001.70
2022-08-05T02:27:59.113Z,1001.70
2022-08-05T02:28:56.276Z,1001.76
2022-08-05T02:29:59.022Z,1001.70
2022-08-05T02:30:56.692Z,1001.69
2022-08-05T02:31:56.244Z,1001.73
2022-08-05T02:32:56.219Z,1001.72
2022-08-05T02:33:57.481Z,1001.78
2022-08-05T02:34:56.277Z,1001.81
2022-08-05T02:35:59.138Z,1001.84
2022-08-05T02:36:57.159Z,1001.87
2022-08-05T02:37:56.149Z,1001.85
2022-08-05T02:38:56.149Z,1001.79
2022-08-05T02:39:56.125Z,1001.87
2022-08-05T02:40:56.116Z,1001.78
2022-08-05T02:42:01.009Z,1001.74
2022-08-05T02:42:57.077Z,1001.71
2022-08-05T02:44:02.317Z,1001.71
2022-08-05T02:44:57.057Z,1001.75
2022-08-05T02:45:56.055Z,1001.71
2022-08-05T02:46:59.736Z,1001.68
2022-08-05T02:48:06.729Z,1001.69
2022-08-05T02:48:57.006Z,1001.68
2022-08-05T02:49:55.996Z,1001.69
2022-08-05T02:50:55.996Z,1001.70
2022-08-05T02:52:03.122Z,1001.71
2022-08-05T02:52:56.955Z,1001.74
2022-08-05T02:53:55.935Z,1001.76
2022-08-05T02:54:56.936Z,1001.73
2022-08-05T02:56:00.295Z,1001.67
2022-08-05T02:56:56.896Z,1001.67
2022-08-05T02:58:10.138Z,1001.74
2022-08-05T02:58:56.876Z,1001.76
2022-08-05T02:59:55.856Z,1001.76
2022-08-05T03:00:55.866Z,1001.75
2022-08-05T03:01:55.900Z,1001.82
2022-08-05T03:02:55.831Z,1001.76
2022-08-05T03:04:02.597Z,1001.73
2022-08-05T03:04:56.795Z,1001.69
2022-08-05T03:06:55.156Z,1001.75
2022-08-05T03:06:59.355Z,1001.77
2022-08-05T03:08:06.910Z,1001.83
2022-08-05T03:08:56.743Z,1001.80
2022-08-05T03:09:55.736Z,1001.81
2022-08-05T03:11:53.129Z,1001.84
2022-08-05T03:11:58.318Z,1001.78
2022-08-05T03:13:51.438Z,1001.82
2022-08-05T03:14:30.129Z,1001.76
2022-08-05T03:15:29.122Z,1001.75
2022-08-05T03:16:29.118Z,1001.71
2022-08-05T03:17:29.099Z,1001.61
2022-08-05T03:18:30.053Z,1001.61
2022-08-05T03:19:34.553Z,1001.70
2022-08-05T03:20:30.048Z,1001.69
2022-08-05T03:21:29.069Z,1001.69
2022-08-05T03:22:32.136Z,1001.72
2022-08-05T03:23:29.019Z,1001.89
2022-08-05T03:24:30.142Z,1001.87
2022-08-05T03:25:32.764Z,1001.87
2022-08-05T03:26:31.471Z,1001.85
2022-08-05T03:27:29.583Z,1001.85
2022-08-05T03:28:29.960Z,1001.69
2022-08-05T03:29:45.821Z,1001.66
2022-08-05T03:30:33.820Z,1001.59
2022-08-05T03:31:56.488Z,1001.52
2022-08-05T03:32:30.635Z,1001.48
2022-08-05T03:33:42.222Z,1001.46
2022-08-05T03:34:29.869Z,1001.40
2022-08-05T03:35:28.869Z,1001.31
2022-08-05T03:36:30.255Z,1001.09
2022-08-05T03:37:28.850Z,1000.84
2022-08-05T03:38:33.345Z,1000.61
2022-08-05T03:39:29.850Z,1000.47
2022-08-05T03:40:32.083Z,1000.42
2022-08-05T03:41:32.915Z,1000.54
2022-08-05T03:42:29.045Z,1000.77
2022-08-05T03:44:09.702Z,1000.94
2022-08-05T03:44:29.754Z,1000.98
2022-08-05T03:45:28.738Z,1000.92
2022-08-05T03:46:30.029Z,1000.84
2022-08-05T03:47:30.413Z,1000.71
2022-08-05T03:48:29.840Z,1000.58
2022-08-05T03:49:31.228Z,1000.44
2022-08-05T03:50:29.676Z,1000.33
2022-08-05T03:52:39.017Z,1000.22
2022-08-05T03:52:39.069Z,1000.19
2022-08-05T03:55:50.895Z,1000.22
2022-08-05T03:55:51.689Z,1000.27
2022-08-05T03:56:04.360Z,1000.28
2022-08-05T03:56:34.764Z,1000.24
2022-08-05T03:57:42.308Z,1000.24
2022-08-05T03:58:29.575Z,1000.32
2022-08-05T03:59:29.030Z,1000.34
2022-08-05T04:00:29.539Z,1000.37
2022-08-05T04:01:28.597Z,1000.40
2022-08-05T04:02:37.334Z,1000.41
2022-08-05T04:03:29.515Z,1000.43
2022-08-05T04:04:28.494Z,1000.44
2022-08-05T04:05:33.921Z,1000.46
2022-08-05T04:06:29.464Z,1000.62
2022-08-05T04:07:28.455Z,1000.66
2022-08-05T04:08:34.841Z,1000.91
2022-08-05T04:09:29.414Z,1000.95
2022-08-05T04:10:32.015Z,1001.03
2022-08-05T04:11:47.092Z,1001.03
2022-08-05T04:12:29.375Z,1001.09
2022-08-05T04:13:49.798Z,1000.98
2022-08-05T04:14:29.864Z,1001.03
2022-08-05T04:15:33.219Z,1001.15
2022-08-05T04:16:32.700Z,1001.15
2022-08-05T04:17:36.423Z,1001.16
2022-08-05T04:18:29.306Z,1001.19
2022-08-05T04:19:28.295Z,1001.21
2022-08-05T04:20:28.274Z,1001.20
2022-08-05T04:22:10.119Z,1001.17
2022-08-05T04:22:29.248Z,1001.25
2022-08-05T04:24:05.396Z,1001.22
2022-08-05T04:24:29.273Z,1001.32
2022-08-05T04:25:56.517Z,1001.36
2022-08-05T04:26:32.433Z,1001.31
2022-08-05T04:27:42.118Z,1001.25
2022-08-05T04:28:30.836Z,1001.35
2022-08-05T04:29:28.172Z,1001.31
2022-08-05T04:30:28.144Z,1001.39
2022-08-05T04:31:37.522Z,1001.39
2022-08-05T04:32:30.831Z,1001.39
2022-08-05T04:33:36.368Z,1001.44
2022-08-05T04:34:32.860Z,1001.38
2022-08-05T04:36:15.656Z,1001.42
2022-08-05T04:36:49.489Z,1001.41
2022-08-05T04:38:00.898Z,1001.40
2022-08-05T04:38:39.288Z,1001.37
2022-08-05T04:39:29.079Z,1001.47
2022-08-05T04:40:28.012Z,1001.41
2022-08-05T04:41:34.097Z,1001.36
2022-08-05T04:42:28.992Z,1001.47
2022-08-05T04:43:28.005Z,1001.37
2022-08-05T04:44:29.898Z,1001.41
2022-08-05T04:45:48.648Z,1001.38
2022-08-05T04:46:28.941Z,1001.37
2022-08-05T04:47:27.940Z,1001.33
2022-08-05T04:48:28.915Z,1001.28
2022-08-05T04:49:38.499Z,1001.27
2022-08-05T04:50:37.167Z,1001.29
2022-08-05T04:51:30.298Z,1001.21
2022-08-05T04:52:28.133Z,1001.22
2022-08-05T04:53:27.842Z,1001.25
2022-08-05T04:54:28.841Z,1001.26
2022-08-05T04:56:11.866Z,1001.20
2022-08-05T04:56:34.244Z,1001.33
2022-08-05T04:57:37.013Z,1001.36
2022-08-05T04:58:28.782Z,1001.44
2022-08-05T04:59:36.604Z,1001.57
2022-08-05T05:00:28.771Z,1001.62
2022-08-05T05:01:59.664Z,1001.59
2022-08-05T05:02:36.463Z,1001.53
2022-08-05T05:03:28.720Z,1001.49
2022-08-05T05:04:28.701Z,1001.34
2022-08-05T05:05:29.098Z,1001.26
2022-08-05T05:06:39.418Z,1001.10
2022-08-05T05:07:29.671Z,1001.06
2022-08-05T05:08:30.378Z,1001.07
2022-08-05T05:09:27.643Z,1001.11
2022-08-05T05:10:27.629Z,1001.16
2022-08-05T05:11:52.869Z,1001.19
2022-08-05T05:12:28.598Z,1001.23
2022-08-05T05:13:32.204Z,1001.36
2022-08-05T05:14:32.221Z,1001.39
2022-08-05T05:15:57.694Z,1001.40
2022-08-05T05:16:30.352Z,1001.32
2022-08-05T05:17:55.552Z,1001.28
2022-08-05T05:18:33.219Z,1001.28
2022-08-05T05:19:37.162Z,1001.29
2022-08-05T05:20:29.025Z,1001.20
2022-08-05T05:21:27.493Z,1001.23
2022-08-05T05:22:27.469Z,1001.21
2022-08-05T05:23:27.459Z,1001.15
2022-08-05T05:24:56.319Z,1001.14
2022-08-05T05:25:32.478Z,1001.13
2022-08-05T05:26:28.287Z,1001.09
2022-08-05T05:27:41.414Z,1001.19
2022-08-05T05:28:28.389Z,1001.24
2022-08-05T05:30:03.221Z,1001.37
2022-08-05T05:30:30.954Z,1001.40
2022-08-05T05:31:35.898Z,1001.38
2022-08-05T05:32:27.335Z,1001.31
2022-08-05T05:33:27.327Z,1001.30
2022-08-05T05:34:27.386Z,1001.27
2022-08-05T05:35:27.299Z,1001.33
2022-08-05T05:36:28.364Z,1001.33
2022-08-05T05:37:29.149Z,1001.34
2022-08-05T05:38:28.261Z,1001.30
2022-08-05T05:39:34.512Z,1001.27
2022-08-05T05:40:28.228Z,1001.29
2022-08-05T05:41:40.335Z,1001.33
2022-08-05T05:42:28.217Z,1001.39
2022-08-05T05:43:54.129Z,1001.37
2022-08-05T05:44:37.481Z,1001.44
2022-08-05T05:45:28.166Z,1001.38
2022-08-05T05:46:27.148Z,1001.40
2022-08-05T05:47:46.432Z,1001.40
2022-08-05T05:48:28.308Z,1001.37
2022-08-05T05:49:27.116Z,1001.39
2022-08-05T05:50:27.097Z,1001.32
2022-08-05T05:51:28.039Z,1001.35
2022-08-05T05:52:31.367Z,1001.36
2022-08-05T05:53:28.066Z,1001.39
2022-08-05T05:54:50.312Z,1001.34
2022-08-05T05:55:51.872Z,1001.25
2022-08-05T05:56:32.240Z,1001.31
2022-08-05T05:57:42.799Z,1001.33
2022-08-05T05:58:31.792Z,1001.37
2022-08-05T05:59:28.708Z,1001.53
2022-08-05T06:00:31.452Z,1001.60
2022-08-05T06:01:30.350Z,1001.66
2022-08-05T06:02:36.663Z,1001.68
2022-08-05T06:03:39.763Z,1001.74
2022-08-05T06:04:27.991Z,1001.70
2022-08-05T06:05:26.906Z,1001.67
2022-08-05T06:06:27.926Z,1001.56
2022-08-05T06:07:41.376Z,1001.57
2022-08-05T06:08:32.700Z,1001.56
2022-08-05T06:09:50.198Z,1001.59
2022-08-05T06:10:29.473Z,1001.59
2022-08-05T06:11:28.798Z,1001.59
2022-08-05T06:12:27.257Z,1001.61
2022-08-05T06:13:26.828Z,1001.46
2022-08-05T06:14:27.874Z,1001.39
2022-08-05T06:16:28.839Z,1001.41
2022-08-05T06:16:32.621Z,1001.39
2022-08-05T06:17:30.839Z,1001.46
2022-08-05T06:18:31.124Z,1001.45
2022-08-05T06:19:34.943Z,1001.60
2022-08-05T06:20:28.718Z,1001.57
2022-08-05T06:21:36.690Z,1001.57
2022-08-05T06:22:27.693Z,1001.60
2022-08-05T06:23:26.673Z,1001.70
2022-08-05T06:24:27.666Z,1001.74
2022-08-05T06:26:00.115Z,1001.74
2022-08-05T06:26:27.631Z,1001.79
2022-08-05T06:28:12.249Z,1001.74
2022-08-05T06:28:28.418Z,1001.81
2022-08-05T06:29:46.266Z,1001.79
2022-08-05T06:30:27.581Z,1001.83
2022-08-05T06:31:30.642Z,1001.80
2022-08-05T06:32:28.808Z,1001.83
2022-08-05T06:33:33.077Z,1001.80
2022-08-05T06:34:27.813Z,1001.79
2022-08-05T06:36:08.093Z,1001.80
2022-08-05T06:36:27.534Z,1001.85
2022-08-05T06:37:56.137Z,1001.74
2022-08-05T06:38:36.683Z,1001.81
2022-08-05T06:39:27.823Z,1001.81
2022-08-05T06:40:27.939Z,1001.77
2022-08-05T06:41:26.433Z,1001.77
2022-08-05T06:42:27.170Z,1001.74
2022-08-05T06:43:58.406Z,1001.75
2022-08-05T06:44:27.425Z,1001.73
2022-08-05T06:45:44.692Z,1001.78
2022-08-05T06:46:30.167Z,1001.83
2022-08-05T06:47:30.326Z,1001.88
2022-08-05T06:48:50.311Z,1001.99
2022-08-05T06:50:01.402Z,1002.07
2022-08-05T06:50:27.382Z,1002.11
2022-08-05T06:51:30.106Z,1002.11
2022-08-05T06:52:38.192Z,1002.15
2022-08-05T06:53:28.458Z,1002.11
2022-08-05T06:54:26.292Z,1002.13
2022-08-05T06:55:27.209Z,1002.11
2022-08-05T06:56:27.120Z,1002.21
2022-08-05T06:58:03.331Z,1002.16
2022-08-05T06:58:34.958Z,1002.23
2022-08-05T06:59:27.223Z,1002.22
2022-08-05T07:00:26.182Z,1002.22
2022-08-05T07:01:31.976Z,1002.16
2022-08-05T07:02:27.171Z,1002.14
2022-08-05T07:03:27.928Z,1002.17
2022-08-05T07:04:27.160Z,1002.20
2022-08-05T07:05:36.977Z,1002.15
2022-08-05T07:06:28.426Z,1002.23
2022-08-05T07:07:35.299Z,1002.22
2022-08-05T07:08:27.069Z,1002.21
2022-08-05T07:09:26.078Z,1002.22
2022-08-05T07:10:32.683Z,1002.23
2022-08-05T07:11:27.041Z,1002.20
2022-08-05T07:12:26.028Z,1002.21
2022-08-05T07:13:37.236Z,1002.21
2022-08-05T07:14:29.384Z,1002.17
2022-08-05T07:15:34.769Z,1002.21
2022-08-05T07:17:57.195Z,1002.29
2022-08-05T07:18:08.380Z,1002.28
2022-08-05T07:18:29.132Z,1002.32
2022-08-05T07:20:10.656Z,1002.37
2022-08-05T07:20:37.150Z,1002.37
2022-08-05T07:21:26.919Z,1002.38
2022-08-05T07:22:29.134Z,1002.36
2022-08-05T07:23:26.419Z,1002.33
2022-08-05T07:24:28.646Z,1002.33
2022-08-05T07:25:56.298Z,1002.41
2022-08-05T07:26:26.847Z,1002.39
2022-08-05T07:27:27.730Z,1002.39
2022-08-05T07:28:26.807Z,1002.41
2022-08-05T07:30:22.843Z,1002.40
2022-08-05T07:30:32.004Z,1002.46
2022-08-05T07:31:40.909Z,1002.46
2022-08-05T07:32:26.766Z,1002.45
2022-08-05T07:33:37.090Z,1002.51
2022-08-05T07:34:28.782Z,1002.50
2022-08-05T07:36:02.115Z,1002.50
2022-08-05T07:36:26.716Z,1002.57
2022-08-05T07:37:28.919Z,1002.57
2022-08-05T07:38:33.472Z,1002.56
2022-08-05T07:40:04.400Z,1002.56
2022-08-05T07:40:33.019Z,1002.58
2022-08-05T07:42:09.287Z,1002.56
2022-08-05T07:42:31.866Z,1002.57
2022-08-05T07:43:26.624Z,1002.57
2022-08-05T07:44:25.607Z,1002.60
2022-08-05T07:45:56.547Z,1002.57
2022-08-05T07:46:26.809Z,1002.58
2022-08-05T07:47:25.606Z,1002.60
2022-08-05T07:49:03.076Z,1002.57
2022-08-05T07:49:26.538Z,1002.67
2022-08-05T07:50:26.730Z,1002.61
2022-08-05T07:51:37.325Z,1002.60
2022-08-05T07:52:26.508Z,1002.59
2022-08-05T07:53:26.905Z,1002.61
2022-08-05T07:54:30.884Z,1002.61
2022-08-05T07:56:04.756Z,1002.60
2022-08-05T07:56:59.791Z,1002.67
2022-08-05T07:57:51.298Z,1002.64
2022-08-05T07:58:57.412Z,1002.66
2022-08-05T07:59:38.311Z,1002.71
2022-08-05T08:00:26.384Z,1002.74
2022-08-05T08:01:25.464Z,1002.77
2022-08-05T08:02:26.576Z,1002.74
2022-08-05T08:03:44.075Z,1002.78
2022-08-05T08:04:37.676Z,1002.83
2022-08-05T08:05:26.465Z,1002.94
2022-08-05T08:06:28.112Z,1002.99
2022-08-05T08:07:25.472Z,1002.99
2022-08-05T08:08:26.045Z,1003.05
2022-08-05T08:09:25.284Z,1003.03
2022-08-05T08:10:25.266Z,1003.06
2022-08-05T08:11:27.687Z,1003.10
2022-08-05T08:12:35.035Z,1003.13
2022-08-05T08:13:29.121Z,1003.10
2022-08-05T08:14:25.224Z,1003.14
2022-08-05T08:16:33.619Z,1003.17
2022-08-05T08:16:35.251Z,1003.21
2022-08-05T08:17:27.899Z,1003.10
2022-08-05T08:18:25.155Z,1003.14
2022-08-05T08:20:22.669Z,1003.23
2022-08-05T08:20:44.574Z,1003.14
2022-08-05T08:21:26.123Z,1003.14
2022-08-05T08:22:25.111Z,1003.12
2022-08-05T08:24:03.315Z,1003.25
2022-08-05T08:24:46.001Z,1003.26
2022-08-05T08:25:26.740Z,1003.27
2022-08-05T08:26:29.674Z,1003.28
2022-08-05T08:27:35.600Z,1003.26
2022-08-05T08:28:36.482Z,1003.26
2022-08-05T08:30:04.595Z,1003.31
2022-08-05T08:30:32.891Z,1003.32
2022-08-05T08:31:26.865Z,1003.35
2022-08-05T08:32:27.820Z,1003.41
2022-08-05T08:33:24.964Z,1003.52
2022-08-05T08:34:30.236Z,1003.46
2022-08-05T08:35:26.688Z,1003.52
2022-08-05T08:36:38.830Z,1003.54
2022-08-05T08:37:27.890Z,1003.55
2022-08-05T08:38:35.913Z,1003.58
2022-08-05T08:39:25.899Z,1003.59
2022-08-05T08:40:24.862Z,1003.64
2022-08-05T08:41:26.122Z,1003.70
2022-08-05T08:42:46.959Z,1003.68
2022-08-05T08:45:18.518Z,1003.74
2022-08-05T08:45:19.418Z,1003.77
2022-08-05T08:45:29.608Z,1003.77
2022-08-05T08:46:24.781Z,1003.77
2022-08-05T08:48:05.481Z,1003.74
2022-08-05T08:49:00.988Z,1003.74
2022-08-05T08:50:23.069Z,1003.76
2022-08-05T08:50:31.716Z,1003.69
2022-08-05T08:52:03.312Z,1003.69
2022-08-05T08:52:26.020Z,1003.75
2022-08-05T08:53:24.699Z,1003.76
2022-08-05T08:54:27.123Z,1003.71
2022-08-05T08:56:02.103Z,1003.66
2022-08-05T08:56:27.086Z,1003.65
2022-08-05T08:57:24.642Z,1003.66
2022-08-05T08:58:36.895Z,1003.70
2022-08-05T08:59:27.513Z,1003.77
2022-08-05T09:00:24.647Z,1003.77
2022-08-05T09:01:24.598Z,1003.75
2022-08-05T09:02:26.891Z,1003.75
2022-08-05T09:03:24.558Z,1003.81
2022-08-05T09:04:30.299Z,1003.78
2022-08-05T09:05:38.586Z,1003.85
2022-08-05T09:06:28.198Z,1003.79
2022-08-05T09:07:28.747Z,1003.88
2022-08-05T09:08:27.478Z,1003.89
2022-08-05T09:09:26.040Z,1003.89
2022-08-05T09:10:27.156Z,1003.90
2022-08-05T09:11:51.580Z,1003.87
2022-08-05T09:12:27.360Z,1003.95
2022-08-05T09:13:24.427Z,1003.92
2022-08-05T09:14:56.816Z,1003.93
2022-08-05T09:15:25.407Z,1003.92
2022-08-05T09:16:26.922Z,1003.97
2022-08-05T09:17:41.124Z,1003.99
2022-08-05T09:18:25.359Z,1003.99
2022-08-05T09:19:28.053Z,1003.99
2022-08-05T09:20:36.758Z,1004.03
2022-08-05T09:22:23.040Z,1003.99
2022-08-05T09:22:32.088Z,1003.95
2022-08-05T09:23:27.219Z,1003.96
2022-08-05T09:24:24.398Z,1003.98
2022-08-05T09:26:00.325Z,1003.97
2022-08-05T09:26:25.246Z,1004.01
2022-08-05T09:28:05.497Z,1004.00
2022-08-05T09:28:32.524Z,1004.04
2022-08-05T09:29:30.908Z,1003.99
2022-08-05T09:30:25.199Z,1004.08
2022-08-05T09:32:39.241Z,1004.07
2022-08-05T09:32:39.888Z,1004.10
2022-08-05T09:33:25.157Z,1004.11
2022-08-05T09:34:26.162Z,1004.07
2022-08-05T09:35:27.236Z,1004.07
2022-08-05T09:36:27.368Z,1004.13
2022-08-05T09:38:12.433Z,1004.08
2022-08-05T09:38:27.510Z,1004.18
2022-08-05T09:39:24.135Z,1004.17
2022-08-05T09:40:25.099Z,1004.13
2022-08-05T09:41:24.054Z,1004.15
2022-08-05T09:42:28.505Z,1004.16
2022-08-05T09:43:24.024Z,1004.19
2022-08-05T09:44:24.016Z,1004.22
2022-08-05T09:46:07.669Z,1004.18
2022-08-05T09:46:28.033Z,1004.26
2022-08-05T09:47:23.984Z,1004.24
2022-08-05T09:48:23.954Z,1004.28
2022-08-05T09:49:23.954Z,1004.25
2022-08-05T09:50:38.690Z,1004.19
2022-08-05T09:51:24.915Z,1004.25
2022-08-05T09:52:24.058Z,1004.22
2022-08-05T09:53:26.008Z,1004.22
2022-08-05T09:54:29.318Z,1004.26
2022-08-05T09:55:57.053Z,1004.23
2022-08-05T09:56:24.862Z,1004.30
2022-08-05T09:57:23.854Z,1004.26
2022-08-05T09:58:23.848Z,1004.30
2022-08-05T09:59:23.816Z,1004.32
2022-08-05T10:00:23.803Z,1004.31
2022-08-05T10:01:32.366Z,1004.35
2022-08-05T10:02:25.096Z,1004.41
2022-08-05T10:03:23.762Z,1004.37
2022-08-05T10:04:28.626Z,1004.43
2022-08-05T10:05:23.820Z,1004.39
2022-08-05T10:06:23.743Z,1004.40
2022-08-05T10:08:11.247Z,1004.45
2022-08-05T10:08:36.322Z,1004.51
2022-08-05T10:09:28.325Z,1004.49
2022-08-05T10:10:28.167Z,1004.48
2022-08-05T10:11:29.643Z,1004.42
2022-08-05T10:12:31.515Z,1004.53
2022-08-05T10:13:24.631Z,1004.47
2022-08-05T10:14:23.621Z,1004.56
2022-08-05T10:15:23.601Z,1004.62
2022-08-05T10:16:23.592Z,1004.64
2022-08-05T10:17:37.705Z,1004.67
2022-08-05T10:18:24.571Z,1004.69
2022-08-05T10:20:02.954Z,1004.69
2022-08-05T10:20:25.134Z,1004.66
2022-08-05T10:21:23.530Z,1004.68
2022-08-05T10:22:30.385Z,1004.67
2022-08-05T10:23:56.032Z,1004.63
2022-08-05T10:24:24.974Z,1004.70
2022-08-05T10:25:23.472Z,1004.71
2022-08-05T10:26:31.638Z,1004.82
2022-08-05T10:27:26.327Z,1004.80
2022-08-05T10:28:29.304Z,1004.75
2022-08-05T10:29:24.420Z,1004.85
2022-08-05T10:31:19.922Z,1004.84
2022-08-05T10:32:52.563Z,1004.81
2022-08-05T10:32:52.722Z,1004.87
2022-08-05T10:33:24.369Z,1004.88
2022-08-05T10:34:25.805Z,1004.80
2022-08-05T10:35:24.340Z,1004.85
2022-08-05T10:36:26.131Z,1004.91
2022-08-05T10:37:23.329Z,1004.90
2022-08-05T10:38:24.310Z,1004.89
2022-08-05T10:39:25.106Z,1004.90
2022-08-05T10:40:28.072Z,1004.96
2022-08-05T10:41:23.790Z,1004.92
2022-08-05T10:42:33.741Z,1004.94
2022-08-05T10:43:24.238Z,1004.94
2022-08-05T10:44:24.228Z,1004.97
2022-08-05T10:45:40.418Z,1005.08
2022-08-05T10:46:24.273Z,1005.04
2022-08-05T10:47:26.864Z,1005.06
2022-08-05T10:48:31.877Z,1005.11
2022-08-05T10:49:27.198Z,1005.14
2022-08-05T10:50:36.603Z,1005.13
2022-08-05T10:51:28.869Z,1005.13
2022-08-05T10:52:24.350Z,1005.04
2022-08-05T10:53:23.108Z,1004.99
2022-08-05T10:54:29.865Z,1005.07
2022-08-05T10:55:24.081Z,1005.05
2022-08-05T10:56:25.909Z,1005.13
2022-08-05T10:57:23.077Z,1005.08
2022-08-05T10:58:23.057Z,1005.15
2022-08-05T11:00:02.414Z,1005.15
2022-08-05T11:00:24.028Z,1005.19
2022-08-05T11:01:28.376Z,1005.19
2022-08-05T11:02:38.371Z,1005.17
2022-08-05T11:03:26.940Z,1005.22
2022-08-05T11:04:22.967Z,1005.14
2022-08-05T11:05:26.274Z,1005.19
2022-08-05T11:06:30.829Z,1005.24
2022-08-05T11:07:33.350Z,1005.23
2022-08-05T11:08:37.904Z,1005.18
2022-08-05T11:09:24.456Z,1005.30
2022-08-05T11:10:27.555Z,1005.25
2022-08-05T11:11:23.877Z,1005.31
2022-08-05T11:12:24.043Z,1005.30
2022-08-05T11:13:22.854Z,1005.34
2022-08-05T11:14:37.084Z,1005.34
2022-08-05T11:15:23.826Z,1005.38
2022-08-05T11:16:34.013Z,1005.34
2022-08-05T11:17:58.917Z,1005.46
2022-08-05T11:18:23.785Z,1005.38
2022-08-05T11:20:16.603Z,1005.36
2022-08-05T11:20:23.768Z,1005.31
2022-08-05T11:21:22.756Z,1005.45
2022-08-05T11:22:22.745Z,1005.39
2022-08-05T11:23:22.736Z,1005.39
2022-08-05T11:24:30.707Z,1005.41
2022-08-05T11:26:05.849Z,1005.34
2022-08-05T11:26:28.646Z,1005.40
2022-08-05T11:27:23.774Z,1005.41
2022-08-05T11:28:23.229Z,1005.32
2022-08-05T11:29:22.665Z,1005.36
2022-08-05T11:30:22.635Z,1005.32
2022-08-05T11:31:57.537Z,1005.37
2022-08-05T11:32:23.614Z,1005.36
2022-08-05T11:33:22.597Z,1005.32
2022-08-05T11:34:22.806Z,1005.32
2022-08-05T11:35:22.585Z,1005.37
2022-08-05T11:36:34.698Z,1005.40
2022-08-05T11:38:28.420Z,1005.38
2022-08-05T11:38:29.692Z,1005.29
2022-08-05T11:39:23.610Z,1005.30
2022-08-05T11:40:22.605Z,1005.29
2022-08-05T11:41:58.056Z,1005.29
2022-08-05T11:42:23.484Z,1005.38
2022-08-05T11:44:04.925Z,1005.31
2022-08-05T11:44:40.659Z,1005.32
2022-08-05T11:46:15.310Z,1005.34
2022-08-05T11:46:23.513Z,1005.27
2022-08-05T11:47:49.059Z,1005.32
2022-08-05T11:48:23.416Z,1005.26
2022-08-05T11:49:22.394Z,1005.30
2022-08-05T11:50:22.383Z,1005.32
2022-08-05T11:51:44.207Z,1005.30
2022-08-05T11:52:23.370Z,1005.26
2022-08-05T11:53:23.345Z,1005.36
2022-08-05T11:54:22.334Z,1005.27
2022-08-05T11:55:23.324Z,1005.33
2022-08-05T11:56:23.303Z,1005.30
2022-08-05T11:57:25.259Z,1005.33
2022-08-05T11:58:22.283Z,1005.36
2022-08-05T11:59:22.263Z,1005.29
2022-08-05T12:00:22.243Z,1005.32
2022-08-05T12:01:23.244Z,1005.28
2022-08-05T12:02:29.686Z,1005.29
2022-08-05T12:03:29.243Z,1005.28
2022-08-05T12:04:23.193Z,1005.24
2022-08-05T12:05:25.974Z,1005.32
2022-08-05T12:06:23.173Z,1005.24